sensor_id;sensor_type;location;lat;lon;timestamp;P1;durP1;ratioP1;P2;durP2;ratioP2
10166;SDS011;62970;53.130;8.244;2022-12-11T00:00:56;24.90;;;19.10;;
10166;SDS011;62970;53.130;8.244;2022-12-11T00:03:25;25.43;;;18.50;;
10166;SDS011;62970;53.130;8.244;2022-12-11T00:05:54;29.33;;;19.10;;
10166;SDS011;62970;53.130;8.244;2022-12-11T00:08:23;25.47;;;18.87;;
10166;SDS011;62970;53.130;8.244;2022-12-11T00:10:53;26.53;;;18.87;;
10166;SDS011;62970;53.130;8.244;2022-12-11T00:13:22;24.47;;;18.47;;
10166;SDS011;62970;53.130;8.244;2022-12-11T00:15:52;25.07;;;19.13;;
10166;SDS011;62970;53.130;8.244;2022-12-11T00:18:26;24.70;;;18.40;;
10166;SDS011;62970;53.130;8.244;2022-12-11T00:20:58;23.60;;;18.20;;
10166;SDS011;62970;53.130;8.244;2022-12-11T00:23:33;25.43;;;18.97;;
10166;SDS011;62970;53.130;8.244;2022-12-11T00:26:06;25.63;;;18.77;;
10166;SDS011;62970;53.130;8.244;2022-12-11T00:28:38;25.80;;;18.97;;
10166;SDS011;62970;53.130;8.244;2022-12-11T00:31:12;24.97;;;18.37;;
10166;SDS011;62970;53.130;8.244;2022-12-11T00:33:44;24.17;;;18.87;;
10166;SDS011;62970;53.130;8.244;2022-12-11T00:36:16;25.40;;;20.23;;
10166;SDS011;62970;53.130;8.244;2022-12-11T00:38:47;24.23;;;19.03;;
10166;SDS011;62970;53.130;8.244;2022-12-11T00:41:18;25.67;;;18.93;;
10166;SDS011;62970;53.130;8.244;2022-12-11T00:43:50;21.07;;;17.27;;
10166;SDS011;62970;53.130;8.244;2022-12-11T00:46:22;24.70;;;18.53;;
10166;SDS011;62970;53.130;8.244;2022-12-11T00:48:53;24.60;;;18.60;;
10166;SDS011;62970;53.130;8.244;2022-12-11T00:51:23;26.30;;;18.73;;
10166;SDS011;62970;53.130;8.244;2022-12-11T00:53:54;24.97;;;20.27;;
10166;SDS011;62970;53.130;8.244;2022-12-11T00:56:24;23.87;;;18.77;;
10166;SDS011;62970;53.130;8.244;2022-12-11T00:58:54;23.50;;;18.33;;
10166;SDS011;62970;53.130;8.244;2022-12-11T01:01:29;25.07;;;18.67;;
10166;SDS011;62970;53.130;8.244;2022-12-11T01:03:58;25.00;;;18.47;;
10166;SDS011;62970;53.130;8.244;2022-12-11T01:06:27;24.50;;;18.87;;
10166;SDS011;62970;53.130;8.244;2022-12-11T01:08:57;25.13;;;18.17;;
10166;SDS011;62970;53.130;8.244;2022-12-11T01:11:38;23.67;;;18.27;;
10166;SDS011;62970;53.130;8.244;2022-12-11T01:14:09;25.47;;;20.17;;
10166;SDS011;62970;53.130;8.244;2022-12-11T01:16:41;26.43;;;18.73;;
10166;SDS011;62970;53.130;8.244;2022-12-11T01:19:10;25.57;;;19.07;;
10166;SDS011;62970;53.130;8.244;2022-12-11T01:21:40;26.73;;;19.67;;
10166;SDS011;62970;53.130;8.244;2022-12-11T01:24:09;28.03;;;20.23;;
10166;SDS011;62970;53.130;8.244;2022-12-11T01:26:39;25.30;;;18.57;;
10166;SDS011;62970;53.130;8.244;2022-12-11T01:29:09;28.03;;;20.13;;
10166;SDS011;62970;53.130;8.244;2022-12-11T01:31:44;26.73;;;19.73;;
10166;SDS011;62970;53.130;8.244;2022-12-11T01:34:13;26.10;;;19.67;;
10166;SDS011;62970;53.130;8.244;2022-12-11T01:36:44;28.00;;;19.93;;
10166;SDS011;62970;53.130;8.244;2022-12-11T01:39:13;26.60;;;19.67;;
10166;SDS011;62970;53.130;8.244;2022-12-11T01:41:49;26.27;;;19.47;;
10166;SDS011;62970;53.130;8.244;2022-12-11T01:47:58;27.50;;;19.20;;
10166;SDS011;62970;53.130;8.244;2022-12-11T01:50:33;29.13;;;19.77;;
10166;SDS011;62970;53.130;8.244;2022-12-11T01:53:09;25.90;;;19.17;;
10166;SDS011;62970;53.130;8.244;2022-12-11T01:55:45;29.07;;;20.47;;
10166;SDS011;62970;53.130;8.244;2022-12-11T01:58:17;30.23;;;20.57;;
10166;SDS011;62970;53.130;8.244;2022-12-11T02:00:48;31.60;;;22.30;;
10166;SDS011;62970;53.130;8.244;2022-12-11T02:03:21;30.03;;;20.30;;
10166;SDS011;62970;53.130;8.244;2022-12-11T02:05:53;32.07;;;21.53;;
10166;SDS011;62970;53.130;8.244;2022-12-11T02:08:26;33.50;;;21.83;;
10166;SDS011;62970;53.130;8.244;2022-12-11T02:11:00;30.93;;;21.60;;
10166;SDS011;62970;53.130;8.244;2022-12-11T02:13:36;33.30;;;22.27;;
10166;SDS011;62970;53.130;8.244;2022-12-11T02:16:22;30.03;;;21.47;;
10166;SDS011;62970;53.130;8.244;2022-12-11T02:19:04;32.20;;;21.40;;
10166;SDS011;62970;53.130;8.244;2022-12-11T02:21:46;30.77;;;21.07;;
10166;SDS011;62970;53.130;8.244;2022-12-11T02:24:38;30.17;;;22.10;;
10166;SDS011;62970;53.130;8.244;2022-12-11T02:27:39;28.03;;;19.93;;
10166;SDS011;62970;53.130;8.244;2022-12-11T02:30:16;33.00;;;21.07;;
10166;SDS011;62970;53.130;8.244;2022-12-11T02:32:46;30.43;;;21.33;;
10166;SDS011;62970;53.130;8.244;2022-12-11T02:35:23;33.97;;;22.23;;
10166;SDS011;62970;53.130;8.244;2022-12-11T02:37:59;34.50;;;22.67;;
10166;SDS011;62970;53.130;8.244;2022-12-11T02:40:33;32.90;;;22.47;;
10166;SDS011;62970;53.130;8.244;2022-12-11T02:43:09;33.33;;;21.50;;
10166;SDS011;62970;53.130;8.244;2022-12-11T02:45:44;32.77;;;21.83;;
10166;SDS011;62970;53.130;8.244;2022-12-11T02:48:15;35.37;;;22.50;;
10166;SDS011;62970;53.130;8.244;2022-12-11T02:50:47;34.07;;;22.07;;
10166;SDS011;62970;53.130;8.244;2022-12-11T02:53:23;36.67;;;23.30;;
10166;SDS011;62970;53.130;8.244;2022-12-11T02:55:58;39.63;;;22.83;;
10166;SDS011;62970;53.130;8.244;2022-12-11T02:58:38;40.97;;;23.73;;
10166;SDS011;62970;53.130;8.244;2022-12-11T03:01:17;40.80;;;23.30;;
10166;SDS011;62970;53.130;8.244;2022-12-11T03:03:46;40.80;;;23.40;;
10166;SDS011;62970;53.130;8.244;2022-12-11T03:06:18;36.37;;;22.87;;
10166;SDS011;62970;53.130;8.244;2022-12-11T03:08:54;37.27;;;22.53;;
10166;SDS011;62970;53.130;8.244;2022-12-11T03:11:23;37.33;;;24.60;;
10166;SDS011;62970;53.130;8.244;2022-12-11T03:13:57;35.00;;;23.17;;
10166;SDS011;62970;53.130;8.244;2022-12-11T03:16:32;31.77;;;22.67;;
10166;SDS011;62970;53.130;8.244;2022-12-11T03:19:08;31.87;;;21.57;;
10166;SDS011;62970;53.130;8.244;2022-12-11T03:21:47;33.97;;;22.77;;
10166;SDS011;62970;53.130;8.244;2022-12-11T03:24:26;37.50;;;22.60;;
10166;SDS011;62970;53.130;8.244;2022-12-11T03:27:04;32.90;;;21.80;;
10166;SDS011;62970;53.130;8.244;2022-12-11T03:29:45;31.43;;;22.00;;
10166;SDS011;62970;53.130;8.244;2022-12-11T03:32:25;35.00;;;22.37;;
10166;SDS011;62970;53.130;8.244;2022-12-11T03:35:02;34.13;;;22.60;;
10166;SDS011;62970;53.130;8.244;2022-12-11T03:37:39;36.23;;;22.53;;
10166;SDS011;62970;53.130;8.244;2022-12-11T03:40:11;34.90;;;23.03;;
10166;SDS011;62970;53.130;8.244;2022-12-11T03:42:45;38.67;;;23.77;;
10166;SDS011;62970;53.130;8.244;2022-12-11T03:45:21;34.50;;;22.03;;
10166;SDS011;62970;53.130;8.244;2022-12-11T03:47:57;36.93;;;22.27;;
10166;SDS011;62970;53.130;8.244;2022-12-11T03:50:30;44.20;;;23.47;;
10166;SDS011;62970;53.130;8.244;2022-12-11T03:53:04;45.20;;;25.03;;
10166;SDS011;62970;53.130;8.244;2022-12-11T03:55:36;52.33;;;25.93;;
10166;SDS011;62970;53.130;8.244;2022-12-11T03:58:08;54.13;;;24.83;;
10166;SDS011;62970;53.130;8.244;2022-12-11T04:00:38;52.13;;;23.90;;
10166;SDS011;62970;53.130;8.244;2022-12-11T04:03:12;53.83;;;24.53;;
10166;SDS011;62970;53.130;8.244;2022-12-11T04:05:44;49.43;;;24.13;;
10166;SDS011;62970;53.130;8.244;2022-12-11T04:08:17;44.53;;;22.10;;
10166;SDS011;62970;53.130;8.244;2022-12-11T04:10:49;46.63;;;23.03;;
10166;SDS011;62970;53.130;8.244;2022-12-11T04:13:40;45.70;;;22.07;;
10166;SDS011;62970;53.130;8.244;2022-12-11T04:16:10;46.07;;;20.77;;
10166;SDS011;62970;53.130;8.244;2022-12-11T04:18:39;45.30;;;21.10;;
10166;SDS011;62970;53.130;8.244;2022-12-11T04:21:20;42.93;;;20.27;;
10166;SDS011;62970;53.130;8.244;2022-12-11T04:24:04;46.80;;;22.13;;
10166;SDS011;62970;53.130;8.244;2022-12-11T04:26:43;44.97;;;20.67;;
10166;SDS011;62970;53.130;8.244;2022-12-11T04:29:14;44.10;;;20.63;;
10166;SDS011;62970;53.130;8.244;2022-12-11T04:31:44;41.53;;;20.67;;
10166;SDS011;62970;53.130;8.244;2022-12-11T04:34:17;42.80;;;20.57;;
10166;SDS011;62970;53.130;8.244;2022-12-11T04:36:51;43.63;;;20.43;;
10166;SDS011;62970;53.130;8.244;2022-12-11T04:39:20;45.37;;;20.57;;
10166;SDS011;62970;53.130;8.244;2022-12-11T04:41:49;41.27;;;20.00;;
10166;SDS011;62970;53.130;8.244;2022-12-11T04:44:18;42.53;;;19.87;;
10166;SDS011;62970;53.130;8.244;2022-12-11T04:46:51;42.00;;;18.97;;
10166;SDS011;62970;53.130;8.244;2022-12-11T04:49:23;40.90;;;19.67;;
10166;SDS011;62970;53.130;8.244;2022-12-11T04:51:52;38.63;;;18.63;;
10166;SDS011;62970;53.130;8.244;2022-12-11T04:54:21;37.07;;;18.67;;
10166;SDS011;62970;53.130;8.244;2022-12-11T04:56:52;37.83;;;18.20;;
10166;SDS011;62970;53.130;8.244;2022-12-11T04:59:21;38.53;;;18.00;;
10166;SDS011;62970;53.130;8.244;2022-12-11T05:01:51;39.13;;;18.50;;
10166;SDS011;62970;53.130;8.244;2022-12-11T05:04:20;40.90;;;18.40;;
10166;SDS011;62970;53.130;8.244;2022-12-11T05:06:52;37.27;;;17.80;;
10166;SDS011;62970;53.130;8.244;2022-12-11T05:09:21;35.50;;;18.40;;
10166;SDS011;62970;53.130;8.244;2022-12-11T05:11:51;38.00;;;18.07;;
10166;SDS011;62970;53.130;8.244;2022-12-11T05:14:21;39.73;;;19.00;;
10166;SDS011;62970;53.130;8.244;2022-12-11T05:16:52;34.50;;;18.00;;
10166;SDS011;62970;53.130;8.244;2022-12-11T05:19:24;32.97;;;17.07;;
10166;SDS011;62970;53.130;8.244;2022-12-11T05:21:54;35.43;;;17.40;;
10166;SDS011;62970;53.130;8.244;2022-12-11T05:24:24;29.80;;;17.30;;
10166;SDS011;62970;53.130;8.244;2022-12-11T05:26:53;26.87;;;14.23;;
10166;SDS011;62970;53.130;8.244;2022-12-11T05:29:22;29.20;;;15.67;;
10166;SDS011;62970;53.130;8.244;2022-12-11T05:31:51;31.03;;;15.67;;
10166;SDS011;62970;53.130;8.244;2022-12-11T05:34:20;30.93;;;14.80;;
10166;SDS011;62970;53.130;8.244;2022-12-11T05:36:53;36.10;;;17.00;;
10166;SDS011;62970;53.130;8.244;2022-12-11T05:39:23;33.57;;;16.23;;
10166;SDS011;62970;53.130;8.244;2022-12-11T05:41:52;30.30;;;14.87;;
10166;SDS011;62970;53.130;8.244;2022-12-11T05:44:21;28.33;;;15.20;;
10166;SDS011;62970;53.130;8.244;2022-12-11T05:46:51;31.03;;;15.97;;
10166;SDS011;62970;53.130;8.244;2022-12-11T05:49:21;32.60;;;15.60;;
10166;SDS011;62970;53.130;8.244;2022-12-11T05:51:52;32.03;;;15.57;;
10166;SDS011;62970;53.130;8.244;2022-12-11T05:54:22;30.43;;;15.17;;
10166;SDS011;62970;53.130;8.244;2022-12-11T05:56:51;28.53;;;15.03;;
10166;SDS011;62970;53.130;8.244;2022-12-11T05:59:20;26.43;;;14.40;;
10166;SDS011;62970;53.130;8.244;2022-12-11T06:01:49;28.10;;;15.13;;
10166;SDS011;62970;53.130;8.244;2022-12-11T06:04:20;30.03;;;15.60;;
10166;SDS011;62970;53.130;8.244;2022-12-11T06:06:54;30.53;;;14.43;;
10166;SDS011;62970;53.130;8.244;2022-12-11T06:09:23;29.40;;;14.47;;
10166;SDS011;62970;53.130;8.244;2022-12-11T06:11:54;28.73;;;14.43;;
10166;SDS011;62970;53.130;8.244;2022-12-11T06:14:23;23.97;;;13.30;;
10166;SDS011;62970;53.130;8.244;2022-12-11T06:16:53;27.27;;;14.13;;
10166;SDS011;62970;53.130;8.244;2022-12-11T06:19:25;26.67;;;13.83;;
10166;SDS011;62970;53.130;8.244;2022-12-11T06:21:54;26.03;;;13.80;;
10166;SDS011;62970;53.130;8.244;2022-12-11T06:24:23;24.83;;;12.63;;
10166;SDS011;62970;53.130;8.244;2022-12-11T06:26:53;24.77;;;13.53;;
10166;SDS011;62970;53.130;8.244;2022-12-11T06:29:22;28.03;;;13.47;;
10166;SDS011;62970;53.130;8.244;2022-12-11T06:31:51;25.10;;;13.90;;
10166;SDS011;62970;53.130;8.244;2022-12-11T06:34:21;23.70;;;13.30;;
10166;SDS011;62970;53.130;8.244;2022-12-11T06:36:53;25.50;;;13.27;;
10166;SDS011;62970;53.130;8.244;2022-12-11T06:39:23;23.83;;;13.30;;
10166;SDS011;62970;53.130;8.244;2022-12-11T06:41:53;31.13;;;14.77;;
10166;SDS011;62970;53.130;8.244;2022-12-11T06:44:22;26.13;;;14.23;;
10166;SDS011;62970;53.130;8.244;2022-12-11T06:46:52;25.77;;;14.17;;
10166;SDS011;62970;53.130;8.244;2022-12-11T06:49:21;26.03;;;14.50;;
10166;SDS011;62970;53.130;8.244;2022-12-11T06:51:55;25.50;;;14.60;;
10166;SDS011;62970;53.130;8.244;2022-12-11T06:54:24;23.80;;;12.77;;
10166;SDS011;62970;53.130;8.244;2022-12-11T06:56:54;22.10;;;13.47;;
10166;SDS011;62970;53.130;8.244;2022-12-11T06:59:23;26.43;;;13.53;;
10166;SDS011;62970;53.130;8.244;2022-12-11T07:01:53;22.07;;;13.20;;
10166;SDS011;62970;53.130;8.244;2022-12-11T07:04:22;24.33;;;12.40;;
10166;SDS011;62970;53.130;8.244;2022-12-11T07:06:54;24.47;;;12.77;;
10166;SDS011;62970;53.130;8.244;2022-12-11T07:09:23;22.30;;;12.30;;
10166;SDS011;62970;53.130;8.244;2022-12-11T07:11:53;22.77;;;12.27;;
10166;SDS011;62970;53.130;8.244;2022-12-11T07:14:22;21.60;;;12.23;;
10166;SDS011;62970;53.130;8.244;2022-12-11T07:16:52;23.20;;;12.63;;
10166;SDS011;62970;53.130;8.244;2022-12-11T07:19:21;24.13;;;12.80;;
10166;SDS011;62970;53.130;8.244;2022-12-11T07:21:54;24.23;;;12.33;;
10166;SDS011;62970;53.130;8.244;2022-12-11T07:24:24;25.33;;;13.47;;
10166;SDS011;62970;53.130;8.244;2022-12-11T07:26:54;21.63;;;12.73;;
10166;SDS011;62970;53.130;8.244;2022-12-11T07:29:24;23.47;;;13.60;;
10166;SDS011;62970;53.130;8.244;2022-12-11T07:31:53;21.20;;;12.10;;
10166;SDS011;62970;53.130;8.244;2022-12-11T07:34:23;24.30;;;12.93;;
10166;SDS011;62970;53.130;8.244;2022-12-11T07:36:55;22.63;;;12.50;;
10166;SDS011;62970;53.130;8.244;2022-12-11T07:39:26;21.27;;;12.80;;
10166;SDS011;62970;53.130;8.244;2022-12-11T07:41:55;24.63;;;13.53;;
10166;SDS011;62970;53.130;8.244;2022-12-11T07:44:26;24.37;;;13.47;;
10166;SDS011;62970;53.130;8.244;2022-12-11T07:46:56;22.53;;;13.33;;
10166;SDS011;62970;53.130;8.244;2022-12-11T07:49:25;23.03;;;13.10;;
10166;SDS011;62970;53.130;8.244;2022-12-11T07:51:58;21.90;;;12.53;;
10166;SDS011;62970;53.130;8.244;2022-12-11T07:54:27;21.97;;;13.10;;
10166;SDS011;62970;53.130;8.244;2022-12-11T07:56:56;22.20;;;12.97;;
10166;SDS011;62970;53.130;8.244;2022-12-11T07:59:25;24.93;;;13.50;;
10166;SDS011;62970;53.130;8.244;2022-12-11T08:01:55;24.47;;;13.60;;
10166;SDS011;62970;53.130;8.244;2022-12-11T08:04:24;22.50;;;12.93;;
10166;SDS011;62970;53.130;8.244;2022-12-11T08:06:54;24.93;;;13.63;;
10166;SDS011;62970;53.130;8.244;2022-12-11T08:09:27;25.83;;;13.80;;
10166;SDS011;62970;53.130;8.244;2022-12-11T08:11:57;22.57;;;13.07;;
10166;SDS011;62970;53.130;8.244;2022-12-11T08:14:26;24.77;;;13.60;;
10166;SDS011;62970;53.130;8.244;2022-12-11T08:16:55;22.57;;;13.43;;
10166;SDS011;62970;53.130;8.244;2022-12-11T08:19:26;24.60;;;13.37;;
10166;SDS011;62970;53.130;8.244;2022-12-11T08:21:55;19.97;;;12.77;;
10166;SDS011;62970;53.130;8.244;2022-12-11T08:24:27;20.77;;;12.63;;
10166;SDS011;62970;53.130;8.244;2022-12-11T08:26:57;22.87;;;13.67;;
10166;SDS011;62970;53.130;8.244;2022-12-11T08:29:26;22.77;;;13.23;;
10166;SDS011;62970;53.130;8.244;2022-12-11T08:31:55;23.40;;;13.47;;
10166;SDS011;62970;53.130;8.244;2022-12-11T08:34:24;25.57;;;13.70;;
10166;SDS011;62970;53.130;8.244;2022-12-11T08:36:53;23.30;;;14.00;;
10166;SDS011;62970;53.130;8.244;2022-12-11T08:39:25;21.67;;;13.47;;
10166;SDS011;62970;53.130;8.244;2022-12-11T08:41:55;23.43;;;13.57;;
10166;SDS011;62970;53.130;8.244;2022-12-11T08:44:24;20.47;;;12.83;;
10166;SDS011;62970;53.130;8.244;2022-12-11T08:46:54;22.33;;;13.13;;
10166;SDS011;62970;53.130;8.244;2022-12-11T08:49:23;19.80;;;12.57;;
10166;SDS011;62970;53.130;8.244;2022-12-11T08:51:52;20.13;;;12.20;;
10166;SDS011;62970;53.130;8.244;2022-12-11T08:54:21;20.93;;;11.77;;
10166;SDS011;62970;53.130;8.244;2022-12-11T08:56:53;20.70;;;12.20;;
10166;SDS011;62970;53.130;8.244;2022-12-11T08:59:24;18.47;;;12.10;;
10166;SDS011;62970;53.130;8.244;2022-12-11T09:01:54;21.33;;;12.37;;
10166;SDS011;62970;53.130;8.244;2022-12-11T09:04:24;19.43;;;11.77;;
10166;SDS011;62970;53.130;8.244;2022-12-11T09:06:53;19.37;;;12.57;;
10166;SDS011;62970;53.130;8.244;2022-12-11T09:09:25;21.13;;;12.07;;
10166;SDS011;62970;53.130;8.244;2022-12-11T09:11:54;18.60;;;11.30;;
10166;SDS011;62970;53.130;8.244;2022-12-11T09:14:25;21.13;;;12.73;;
10166;SDS011;62970;53.130;8.244;2022-12-11T09:16:54;22.40;;;12.43;;
10166;SDS011;62970;53.130;8.244;2022-12-11T09:19:24;21.53;;;13.33;;
10166;SDS011;62970;53.130;8.244;2022-12-11T09:21:53;21.87;;;13.30;;
10166;SDS011;62970;53.130;8.244;2022-12-11T09:24:22;19.57;;;11.87;;
10166;SDS011;62970;53.130;8.244;2022-12-11T09:26:53;20.67;;;12.13;;
10166;SDS011;62970;53.130;8.244;2022-12-11T09:29:23;20.47;;;12.10;;
10166;SDS011;62970;53.130;8.244;2022-12-11T09:31:52;20.87;;;12.77;;
10166;SDS011;62970;53.130;8.244;2022-12-11T09:34:21;20.30;;;13.00;;
10166;SDS011;62970;53.130;8.244;2022-12-11T09:36:51;19.67;;;12.03;;
10166;SDS011;62970;53.130;8.244;2022-12-11T09:39:20;19.47;;;11.87;;
10166;SDS011;62970;53.130;8.244;2022-12-11T09:41:54;20.50;;;11.70;;
10166;SDS011;62970;53.130;8.244;2022-12-11T09:44:39;19.00;;;11.13;;
10166;SDS011;62970;53.130;8.244;2022-12-11T09:47:15;20.97;;;12.03;;
10166;SDS011;62970;53.130;8.244;2022-12-11T09:49:52;22.20;;;11.87;;
10166;SDS011;62970;53.130;8.244;2022-12-11T09:52:33;21.87;;;12.00;;
10166;SDS011;62970;53.130;8.244;2022-12-11T09:55:09;20.23;;;11.60;;
10166;SDS011;62970;53.130;8.244;2022-12-11T09:57:51;19.47;;;11.13;;
10166;SDS011;62970;53.130;8.244;2022-12-11T10:00:27;21.00;;;11.13;;
10166;SDS011;62970;53.130;8.244;2022-12-11T10:03:10;17.87;;;11.27;;
10166;SDS011;62970;53.130;8.244;2022-12-11T10:06:11;19.97;;;11.67;;
10166;SDS011;62970;53.130;8.244;2022-12-11T10:08:50;20.17;;;12.67;;
10166;SDS011;62970;53.130;8.244;2022-12-11T10:11:38;22.20;;;12.77;;
10166;SDS011;62970;53.130;8.244;2022-12-11T10:14:23;21.47;;;12.50;;
10166;SDS011;62970;53.130;8.244;2022-12-11T10:17:08;20.07;;;11.37;;
10166;SDS011;62970;53.130;8.244;2022-12-11T10:19:46;17.67;;;11.00;;
10166;SDS011;62970;53.130;8.244;2022-12-11T10:22:18;22.40;;;12.07;;
10166;SDS011;62970;53.130;8.244;2022-12-11T10:24:53;19.90;;;11.47;;
10166;SDS011;62970;53.130;8.244;2022-12-11T10:27:27;21.90;;;12.23;;
10166;SDS011;62970;53.130;8.244;2022-12-11T10:30:07;20.50;;;12.00;;
10166;SDS011;62970;53.130;8.244;2022-12-11T10:32:47;20.53;;;11.60;;
10166;SDS011;62970;53.130;8.244;2022-12-11T10:35:25;19.53;;;12.27;;
10166;SDS011;62970;53.130;8.244;2022-12-11T10:38:11;19.67;;;11.93;;
10166;SDS011;62970;53.130;8.244;2022-12-11T10:40:44;20.73;;;12.90;;
10166;SDS011;62970;53.130;8.244;2022-12-11T10:43:19;21.13;;;12.23;;
10166;SDS011;62970;53.130;8.244;2022-12-11T10:46:01;22.97;;;12.47;;
10166;SDS011;62970;53.130;8.244;2022-12-11T10:48:32;20.03;;;11.73;;
10166;SDS011;62970;53.130;8.244;2022-12-11T10:51:02;19.13;;;11.63;;
10166;SDS011;62970;53.130;8.244;2022-12-11T10:53:33;19.70;;;12.00;;
10166;SDS011;62970;53.130;8.244;2022-12-11T10:56:04;19.07;;;11.97;;
10166;SDS011;62970;53.130;8.244;2022-12-11T10:58:36;21.77;;;12.93;;
10166;SDS011;62970;53.130;8.244;2022-12-11T11:01:17;19.03;;;12.40;;
10166;SDS011;62970;53.130;8.244;2022-12-11T11:03:51;19.37;;;12.60;;
10166;SDS011;62970;53.130;8.244;2022-12-11T11:06:25;24.00;;;12.63;;
10166;SDS011;62970;53.130;8.244;2022-12-11T11:08:55;22.07;;;12.83;;
10166;SDS011;62970;53.130;8.244;2022-12-11T11:11:27;20.10;;;13.17;;
10166;SDS011;62970;53.130;8.244;2022-12-11T11:16:48;21.50;;;12.83;;
10166;SDS011;62970;53.130;8.244;2022-12-11T11:19:20;20.57;;;13.47;;
10166;SDS011;62970;53.130;8.244;2022-12-11T11:21:54;22.50;;;13.57;;
10166;SDS011;62970;53.130;8.244;2022-12-11T11:24:27;18.93;;;12.27;;
10166;SDS011;62970;53.130;8.244;2022-12-11T11:27:02;17.37;;;11.47;;
10166;SDS011;62970;53.130;8.244;2022-12-11T11:29:57;17.27;;;11.03;;
10166;SDS011;62970;53.130;8.244;2022-12-11T11:32:32;19.10;;;11.73;;
10166;SDS011;62970;53.130;8.244;2022-12-11T11:35:13;20.70;;;12.43;;
10166;SDS011;62970;53.130;8.244;2022-12-11T11:37:53;18.63;;;12.37;;
10166;SDS011;62970;53.130;8.244;2022-12-11T11:40:29;17.87;;;12.23;;
10166;SDS011;62970;53.130;8.244;2022-12-11T11:43:06;18.83;;;11.70;;
10166;SDS011;62970;53.130;8.244;2022-12-11T11:45:48;16.30;;;11.17;;
10166;SDS011;62970;53.130;8.244;2022-12-11T11:51:20;15.80;;;10.60;;
10166;SDS011;62970;53.130;8.244;2022-12-11T11:53:57;17.13;;;10.43;;
10166;SDS011;62970;53.130;8.244;2022-12-11T11:56:31;15.47;;;10.37;;
10166;SDS011;62970;53.130;8.244;2022-12-11T11:59:05;15.27;;;9.87;;
10166;SDS011;62970;53.130;8.244;2022-12-11T12:01:44;14.50;;;10.27;;
10166;SDS011;62970;53.130;8.244;2022-12-11T12:04:16;18.00;;;10.77;;
10166;SDS011;62970;53.130;8.244;2022-12-11T12:06:58;15.27;;;10.50;;
10166;SDS011;62970;53.130;8.244;2022-12-11T12:09:50;16.57;;;10.10;;
10166;SDS011;62970;53.130;8.244;2022-12-11T12:12:31;14.60;;;10.83;;
10166;SDS011;62970;53.130;8.244;2022-12-11T12:15:12;15.83;;;11.37;;
10166;SDS011;62970;53.130;8.244;2022-12-11T12:17:53;15.77;;;11.13;;
10166;SDS011;62970;53.130;8.244;2022-12-11T12:20:31;16.13;;;11.30;;
10166;SDS011;62970;53.130;8.244;2022-12-11T12:23:20;16.33;;;11.57;;
10166;SDS011;62970;53.130;8.244;2022-12-11T12:26:24;16.93;;;11.57;;
10166;SDS011;62970;53.130;8.244;2022-12-11T12:28:59;16.67;;;12.03;;
10166;SDS011;62970;53.130;8.244;2022-12-11T12:31:54;15.93;;;12.03;;
10166;SDS011;62970;53.130;8.244;2022-12-11T12:34:38;16.03;;;11.10;;
10166;SDS011;62970;53.130;8.244;2022-12-11T12:37:38;15.07;;;11.10;;
10166;SDS011;62970;53.130;8.244;2022-12-11T12:40:20;18.23;;;12.20;;
10166;SDS011;62970;53.130;8.244;2022-12-11T12:42:59;17.63;;;12.83;;
10166;SDS011;62970;53.130;8.244;2022-12-11T12:45:43;17.73;;;13.30;;
10166;SDS011;62970;53.130;8.244;2022-12-11T12:48:23;17.87;;;13.37;;
10166;SDS011;62970;53.130;8.244;2022-12-11T12:50:55;18.43;;;13.30;;
10166;SDS011;62970;53.130;8.244;2022-12-11T12:53:29;20.03;;;15.07;;
10166;SDS011;62970;53.130;8.244;2022-12-11T12:56:02;20.77;;;14.87;;
10166;SDS011;62970;53.130;8.244;2022-12-11T12:58:39;21.97;;;14.90;;
10166;SDS011;62970;53.130;8.244;2022-12-11T13:01:14;20.40;;;14.30;;
10166;SDS011;62970;53.130;8.244;2022-12-11T13:03:50;18.60;;;13.77;;
10166;SDS011;62970;53.130;8.244;2022-12-11T13:06:33;19.03;;;13.93;;
10166;SDS011;62970;53.130;8.244;2022-12-11T13:11:54;22.20;;;15.03;;
10166;SDS011;62970;53.130;8.244;2022-12-11T13:14:26;18.70;;;14.30;;
10166;SDS011;62970;53.130;8.244;2022-12-11T13:17:05;18.83;;;13.60;;
10166;SDS011;62970;53.130;8.244;2022-12-11T13:20:04;17.67;;;13.00;;
10166;SDS011;62970;53.130;8.244;2022-12-11T13:22:55;17.90;;;12.83;;
10166;SDS011;62970;53.130;8.244;2022-12-11T13:25:51;16.07;;;12.37;;
10166;SDS011;62970;53.130;8.244;2022-12-11T13:28:26;15.43;;;12.20;;
10166;SDS011;62970;53.130;8.244;2022-12-11T13:31:05;17.53;;;12.43;;
10166;SDS011;62970;53.130;8.244;2022-12-11T13:34:04;19.10;;;13.57;;
10166;SDS011;62970;53.130;8.244;2022-12-11T13:36:45;18.40;;;12.93;;
10166;SDS011;62970;53.130;8.244;2022-12-11T13:39:17;22.43;;;14.77;;
10166;SDS011;62970;53.130;8.244;2022-12-11T13:41:52;20.67;;;13.67;;
10166;SDS011;62970;53.130;8.244;2022-12-11T13:44:25;18.07;;;12.33;;
10166;SDS011;62970;53.130;8.244;2022-12-11T13:46:57;14.73;;;11.20;;
10166;SDS011;62970;53.130;8.244;2022-12-11T13:49:32;14.00;;;10.43;;
10166;SDS011;62970;53.130;8.244;2022-12-11T13:52:05;12.90;;;10.20;;
10166;SDS011;62970;53.130;8.244;2022-12-11T13:54:36;13.90;;;10.33;;
10166;SDS011;62970;53.130;8.244;2022-12-11T13:57:16;13.27;;;9.90;;
10166;SDS011;62970;53.130;8.244;2022-12-11T13:59:51;12.73;;;9.50;;
10166;SDS011;62970;53.130;8.244;2022-12-11T14:02:23;14.03;;;11.13;;
10166;SDS011;62970;53.130;8.244;2022-12-11T14:04:56;13.87;;;10.47;;
10166;SDS011;62970;53.130;8.244;2022-12-11T14:07:28;16.23;;;10.90;;
10166;SDS011;62970;53.130;8.244;2022-12-11T14:10:02;16.33;;;11.43;;
10166;SDS011;62970;53.130;8.244;2022-12-11T14:12:37;14.77;;;10.97;;
10166;SDS011;62970;53.130;8.244;2022-12-11T14:15:14;13.97;;;10.70;;
10166;SDS011;62970;53.130;8.244;2022-12-11T14:17:44;15.67;;;11.57;;
10166;SDS011;62970;53.130;8.244;2022-12-11T14:20:15;17.73;;;13.07;;
10166;SDS011;62970;53.130;8.244;2022-12-11T14:22:48;18.23;;;13.53;;
10166;SDS011;62970;53.130;8.244;2022-12-11T14:25:19;17.63;;;13.10;;
10166;SDS011;62970;53.130;8.244;2022-12-11T14:27:54;16.70;;;13.40;;
10166;SDS011;62970;53.130;8.244;2022-12-11T14:30:26;17.87;;;13.90;;
10166;SDS011;62970;53.130;8.244;2022-12-11T14:32:59;18.27;;;13.67;;
10166;SDS011;62970;53.130;8.244;2022-12-11T14:35:32;18.00;;;13.63;;
10166;SDS011;62970;53.130;8.244;2022-12-11T14:38:09;17.17;;;13.73;;
10166;SDS011;62970;53.130;8.244;2022-12-11T14:40:44;20.07;;;14.43;;
10166;SDS011;62970;53.130;8.244;2022-12-11T14:43:22;18.50;;;14.70;;
10166;SDS011;62970;53.130;8.244;2022-12-11T14:45:58;20.87;;;15.23;;
10166;SDS011;62970;53.130;8.244;2022-12-11T14:48:33;20.50;;;14.70;;
10166;SDS011;62970;53.130;8.244;2022-12-11T14:51:06;20.07;;;15.93;;
10166;SDS011;62970;53.130;8.244;2022-12-11T14:53:42;20.20;;;15.37;;
10166;SDS011;62970;53.130;8.244;2022-12-11T14:56:16;19.47;;;14.73;;
10166;SDS011;62970;53.130;8.244;2022-12-11T14:58:51;19.97;;;14.90;;
10166;SDS011;62970;53.130;8.244;2022-12-11T15:01:25;18.73;;;15.00;;
10166;SDS011;62970;53.130;8.244;2022-12-11T15:04:03;17.90;;;13.97;;
10166;SDS011;62970;53.130;8.244;2022-12-11T15:06:47;19.60;;;14.60;;
10166;SDS011;62970;53.130;8.244;2022-12-11T15:09:19;19.20;;;14.40;;
10166;SDS011;62970;53.130;8.244;2022-12-11T15:11:52;20.47;;;15.07;;